Terminal Aerodrome Forecast
Issued by NWS

Home | Current Version | Previous Version | Graphics & Text | Print | Product List | Glossary On
Versions: 1 2 3 4 5 6 7 8 9 10 11 12 13 14 15
048
FTUS43 KOAX 070948 AAA
TAFCDR
TAF AMD
KCDR 070948Z 0710/0806 27012KT P6SM OVC090
     FM071200 29020G27KT P6SM BKN070
     FM071800 31027G36KT P6SM SKC=

USA.gov is the U.S. government's official web portal to all federal, state and local government web resources and services.